Time;durP1;ratioP1;P1;durP2;ratioP2;P2;SDS_P1;SDS_P2;PMS_P1;PMS_P2;Temp;Humidity;BMP_temperature;BMP_pressure;BME280_temperature;BME280_humidity;BME280_pressure;Samples;Min_cycle;Max_cycle;Signal;HPM_P1;HPM_P2
2024/01/25 02:43:46;;;;;;;12.55;2.83;;;;;;;8.21;100.00;100439.91;5172523;22;20061;-46
2024/01/25 02:46:15;;;;;;;12.85;2.83;;;;;;;8.18;100.00;100437.38;5030801;28;20437;-47
2024/01/25 02:48:43;;;;;;;11.38;2.63;;;;;;;8.16;100.00;100425.97;5030999;28;20060;-45
2024/01/25 02:51:14;;;;;;;12.00;2.60;;;;;;;8.14;100.00;100443.78;5031039;28;20045;-47
2024/01/25 02:53:43;;;;;;;12.65;2.67;;;;;;;8.19;100.00;100420.50;5030816;28;20046;-47
2024/01/25 02:56:14;;;;;;;11.00;2.33;;;;;;;8.17;100.00;100443.63;5030710;28;20358;-45
2024/01/25 02:58:42;;;;;;;12.10;2.90;;;;;;;8.14;100.00;100438.47;5030878;28;20406;-45
2024/01/25 03:01:15;;;;;;;15.07;2.67;;;;;;;8.12;100.00;100421.75;5030792;28;20099;-46
2024/01/25 03:03:44;;;;;;;12.77;2.85;;;;;;;8.17;100.00;100419.72;5030447;28;20454;-44
2024/01/25 03:06:13;;;;;;;12.00;2.53;;;;;;;8.19;100.00;100425.81;5029159;28;20053;-44
2024/01/25 03:08:41;;;;;;;12.15;2.72;;;;;;;8.13;100.00;100408.38;5031006;28;20387;-46
2024/01/25 03:11:09;;;;;;;9.57;2.67;;;;;;;8.13;100.00;100424.31;5030688;28;20414;-45
2024/01/25 03:13:40;;;;;;;13.57;2.75;;;;;;;8.15;100.00;100437.53;5030436;28;20054;-46
2024/01/25 03:16:10;;;;;;;17.17;2.92;;;;;;;8.17;100.00;100438.31;5030210;28;20069;-47
2024/01/25 03:18:39;;;;;;;11.23;2.95;;;;;;;8.15;100.00;100448.16;5030926;28;20052;-44
2024/01/25 03:21:11;;;;;;;14.02;3.25;;;;;;;8.19;100.00;100441.75;5030737;28;20117;-46
2024/01/25 03:23:41;;;;;;;13.27;2.72;;;;;;;8.17;100.00;100456.91;5030439;28;20057;-45
2024/01/25 03:26:10;;;;;;;11.35;2.92;;;;;;;8.18;100.00;100448.00;5030695;28;20056;-45
2024/01/25 03:28:40;;;;;;;10.57;2.72;;;;;;;8.16;100.00;100460.50;5030777;28;20042;-46
2024/01/25 03:31:09;;;;;;;14.60;3.53;;;;;;;8.18;100.00;100443.56;5030757;28;20477;-46
2024/01/25 03:33:38;;;;;;;11.55;3.00;;;;;;;8.14;100.00;100457.06;5030807;28;20041;-43
2024/01/25 03:36:16;;;;;;;10.25;2.45;;;;;;;8.12;100.00;100443.00;5012816;28;20088;-44
2024/01/25 03:38:45;;;;;;;11.20;2.88;;;;;;;8.19;100.00;100455.91;5014453;28;20156;-46
2024/01/25 03:41:14;;;;;;;13.40;3.05;;;;;;;8.12;100.00;100443.00;5034120;28;20602;-47
2024/01/25 03:43:44;;;;;;;11.75;2.80;;;;;;;8.19;100.00;100449.72;5034269;28;20081;-46
2024/01/25 03:46:16;;;;;;;14.13;2.47;;;;;;;8.20;100.00;100436.41;5034214;28;20046;-46
2024/01/25 03:48:44;;;;;;;13.23;2.80;;;;;;;8.22;100.00;100445.16;5033983;28;20053;-47
2024/01/25 03:51:17;;;;;;;11.07;2.63;;;;;;;8.25;100.00;100436.16;5016512;28;20041;-47
2024/01/25 03:53:49;;;;;;;9.38;2.42;;;;;;;8.21;100.00;100437.25;5033950;28;20057;-46
2024/01/25 03:56:18;;;;;;;12.10;2.63;;;;;;;8.23;100.00;100438.03;5033928;28;20069;-47
2024/01/25 03:58:56;;;;;;;14.07;2.55;;;;;;;8.29;100.00;100427.94;5033934;28;20510;-50
2024/01/25 04:01:24;;;;;;;13.13;2.95;;;;;;;8.28;100.00;100434.22;5033665;28;20065;-45
2024/01/25 04:03:57;;;;;;;14.95;3.00;;;;;;;8.28;100.00;100447.50;5017131;28;20111;-46
2024/01/25 04:06:27;;;;;;;13.73;3.05;;;;;;;8.39;100.00;100420.44;5034517;28;20080;-46
2024/01/25 04:08:56;;;;;;;14.68;3.65;;;;;;;8.25;100.00;100422.88;5034106;28;20053;-46
2024/01/25 04:11:24;;;;;;;11.07;2.58;;;;;;;8.35;100.00;100437.47;5033609;28;20068;-45
2024/01/25 04:13:56;;;;;;;8.82;2.53;;;;;;;8.45;100.00;100428.13;5033652;28;20053;-48
2024/01/25 04:16:27;;;;;;;10.88;2.60;;;;;;;8.42;100.00;100419.44;5033470;28;20053;-46
2024/01/25 04:18:56;;;;;;;15.48;2.90;;;;;;;8.40;100.00;100422.19;5033604;28;20407;-46
2024/01/25 04:21:33;;;;;;;14.95;2.58;;;;;;;8.42;100.00;100436.25;5033883;28;20048;-47
2024/01/25 04:24:02;;;;;;;11.05;2.45;;;;;;;8.43;100.00;100431.78;5037299;28;20413;-48
2024/01/25 04:26:30;;;;;;;7.78;2.40;;;;;;;8.39;100.00;100420.44;5044572;28;20077;-46
2024/01/25 04:28:58;;;;;;;12.27;2.65;;;;;;;8.46;100.00;100432.50;5042807;28;20109;-50
2024/01/25 04:31:28;;;;;;;12.15;2.50;;;;;;;8.40;100.00;100443.44;5039761;28;20049;-47
2024/01/25 04:34:00;;;;;;;13.68;2.63;;;;;;;8.39;100.00;100436.38;5017635;28;20464;-46
2024/01/25 04:36:32;;;;;;;11.23;2.92;;;;;;;8.43;100.00;100445.09;5034676;28;20103;-46
2024/01/25 04:39:01;;;;;;;11.45;2.97;;;;;;;8.44;100.00;100434.38;5036633;28;20045;-47
2024/01/25 04:41:32;;;;;;;12.23;2.70;;;;;;;8.38;100.00;100434.66;5035448;28;20056;-46
2024/01/25 04:44:01;;;;;;;9.23;2.55;;;;;;;8.41;100.00;100439.84;5053040;28;20085;-43
2024/01/25 04:46:37;;;;;;;11.13;2.60;;;;;;;8.39;100.00;100440.84;5053383;28;20045;-44
2024/01/25 04:49:05;;;;;;;12.27;2.80;;;;;;;8.34;100.00;100443.69;5053375;28;20049;-45
2024/01/25 04:51:41;;;;;;;15.45;2.75;;;;;;;8.45;100.00;100451.19;5053372;28;20045;-50
2024/01/25 04:54:12;;;;;;;9.43;2.50;;;;;;;8.36;100.00;100431.22;5053840;28;20049;-54
2024/01/25 04:56:41;;;;;;;10.60;2.60;;;;;;;8.36;100.00;100447.16;5053447;28;20144;-51
2024/01/25 04:59:12;;;;;;;11.95;2.40;;;;;;;8.35;100.00;100455.22;5053070;28;20355;-54
2024/01/25 05:01:44;;;;;;;10.23;2.28;;;;;;;8.37;100.00;100454.19;5036263;28;20041;-57
2024/01/25 05:04:13;;;;;;;14.48;2.95;;;;;;;8.37;100.00;100440.91;5052513;28;20055;-54
2024/01/25 05:06:46;;;;;;;12.25;2.92;;;;;;;8.30;100.00;100455.41;5034799;28;20053;-54
2024/01/25 05:09:14;;;;;;;10.18;2.63;;;;;;;8.21;100.00;100480.63;5052493;28;20514;-58
2024/01/25 05:11:42;;;;;;;13.45;2.60;;;;;;;8.30;100.00;100452.75;5052343;28;20053;-53
2024/01/25 05:14:14;;;;;;;10.65;2.78;;;;;;;8.26;100.00;100460.00;5052282;28;20059;-58
2024/01/25 05:16:45;;;;;;;8.60;2.60;;;;;;;8.29;100.00;100473.13;5052380;28;20060;-54
2024/01/25 05:19:14;;;;;;;14.40;2.65;;;;;;;8.24;100.00;100459.22;5052651;28;20358;-55
2024/01/25 05:21:44;;;;;;;10.20;2.58;;;;;;;8.36;100.00;100452.47;5035029;28;20056;-55
2024/01/25 05:24:16;;;;;;;11.60;2.33;;;;;;;8.36;100.00;100468.44;5052435;28;20460;-48
2024/01/25 05:26:44;;;;;;;13.25;2.67;;;;;;;8.39;100.00;100462.09;5052377;28;20474;-56
2024/01/25 05:29:13;;;;;;;11.05;2.53;;;;;;;8.40;100.00;100467.38;5052336;28;20075;-56
2024/01/25 05:31:42;;;;;;;9.95;3.10;;;;;;;8.47;100.00;100454.63;5052224;28;20195;-56
2024/01/25 05:34:18;;;;;;;10.35;2.75;;;;;;;8.42;100.00;100469.94;5051916;28;20083;-56
2024/01/25 05:36:48;;;;;;;10.82;2.35;;;;;;;8.45;100.00;100468.00;5052007;28;20045;-55
2024/01/25 05:39:17;;;;;;;11.00;2.35;;;;;;;8.51;100.00;100467.72;5051992;28;20049;-58
2024/01/25 05:41:45;;;;;;;12.00;2.55;;;;;;;8.52;100.00;100464.13;5051769;28;20041;-56
2024/01/25 05:44:16;;;;;;;14.70;2.90;;;;;;;8.49;100.00;100450.97;5052017;28;20052;-56
2024/01/25 05:46:48;;;;;;;11.05;2.50;;;;;;;8.57;100.00;100461.22;5052053;28;20041;-59
2024/01/25 05:49:19;;;;;;;12.98;3.00;;;;;;;8.57;100.00;100459.41;5051889;28;20052;-55
2024/01/25 05:51:49;;;;;;;11.80;2.40;;;;;;;8.53;100.00;100470.28;5051706;28;20049;-59
2024/01/25 05:54:20;;;;;;;14.38;2.40;;;;;;;8.54;100.00;100475.53;5051709;28;20450;-55
2024/01/25 05:56:59;;;;;;;8.63;2.25;;;;;;;8.47;100.00;100503.34;5052112;28;20048;-53
2024/01/25 05:59:29;;;;;;;9.73;3.00;;;;;;;8.48;100.00;100466.97;5051989;28;20068;-57
2024/01/25 06:02:00;;;;;;;17.77;3.38;;;;;;;8.44;100.00;100481.38;5034066;28;20041;-55
2024/01/25 06:04:32;;;;;;;12.13;2.92;;;;;;;8.44;100.00;100486.69;5052011;28;20108;-58
2024/01/25 06:07:08;;;;;;;10.50;2.65;;;;;;;8.38;100.00;100490.47;5051730;28;20094;-58
2024/01/25 06:09:39;;;;;;;;;;;;;;;8.32;100.00;100494.28;5052606;28;20446;-61
2024/01/25 06:12:13;;;;;;;11.27;2.85;;;;;;;8.32;100.00;100488.97;5034345;28;20551;-57
2024/01/25 06:14:41;;;;;;;10.15;2.78;;;;;;;8.18;100.00;100495.84;5052603;28;20076;-57
2024/01/25 06:17:09;;;;;;;12.55;3.15;;;;;;;8.21;100.00;100519.63;5052437;28;20072;-57
2024/01/25 06:19:38;;;;;;;21.42;3.13;;;;;;;8.18;100.00;100493.19;5033766;28;20056;-56
2024/01/25 06:22:08;;;;;;;16.02;3.05;;;;;;;8.17;100.00;100533.97;5051863;28;20091;-57
2024/01/25 06:24:38;;;;;;;13.70;2.85;;;;;;;8.16;100.00;100514.50;5034126;28;20406;-53
2024/01/25 06:27:10;;;;;;;16.65;3.00;;;;;;;8.13;100.00;100500.50;5051853;28;20551;-55
2024/01/25 06:29:39;;;;;;;11.07;2.65;;;;;;;8.11;100.00;100492.63;5051446;28;20049;-52
2024/01/25 06:32:08;;;;;;;12.48;2.75;;;;;;;8.17;100.00;100504.75;5051785;28;20045;-55
2024/01/25 06:34:46;;;;;;;12.45;3.05;;;;;;;8.20;100.00;100507.25;5051626;28;20076;-52
2024/01/25 06:37:18;;;;;;;13.18;2.90;;;;;;;8.19;100.00;100492.25;5051494;28;20088;-53
2024/01/25 06:39:50;;;;;;;15.27;3.03;;;;;;;8.21;100.00;100511.66;5051481;28;20045;-54
2024/01/25 06:42:18;;;;;;;10.05;2.90;;;;;;;8.18;100.00;100503.81;5051313;28;20057;-51
2024/01/25 06:44:50;;;;;;;12.60;2.65;;;;;;;8.23;100.00;100510.66;5051784;28;20076;-52
2024/01/25 06:47:18;;;;;;;12.73;2.72;;;;;;;8.20;100.00;100510.78;5052519;28;20051;-58
2024/01/25 06:49:51;;;;;;;14.55;2.75;;;;;;;8.18;100.00;100523.25;5053354;28;20068;-54
2024/01/25 06:52:22;;;;;;;14.93;3.17;;;;;;;8.15;100.00;100504.81;5054300;28;20084;-55
2024/01/25 06:54:50;;;;;;;16.08;3.15;;;;;;;8.01;100.00;100520.53;5040390;28;20060;-54
2024/01/25 06:57:21;;;;;;;12.00;2.95;;;;;;;7.99;100.00;100496.69;5039544;28;20049;-56
2024/01/25 06:59:52;;;;;;;9.13;2.38;;;;;;;7.88;100.00;100477.72;5039034;28;20410;-59
2024/01/25 07:02:20;;;;;;;14.30;3.53;;;;;;;8.13;100.00;100450.03;5036524;28;20049;-52
2024/01/25 07:04:55;;;;;;;9.75;3.00;;;;;;;8.31;100.00;100459.78;5012663;28;20417;-54
2024/01/25 07:07:28;;;;;;;13.70;2.90;;;;;;;8.35;100.00;100434.81;5033963;28;20359;-55
2024/01/25 07:09:56;;;;;;;12.43;3.28;;;;;;;8.44;100.00;100421.09;5032688;28;20108;-59
2024/01/25 07:12:30;;;;;;;12.43;2.90;;;;;;;8.55;100.00;100420.56;5032955;28;20160;-58
2024/01/25 07:14:59;;;;;;;12.07;3.15;;;;;;;8.50;100.00;100426.13;5033383;28;20045;-54
2024/01/25 07:17:28;;;;;;;13.00;2.67;;;;;;;8.57;100.00;100400.06;5034432;28;20064;-53
2024/01/25 07:19:56;;;;;;;11.60;2.80;;;;;;;8.62;100.00;100426.44;5034678;28;20558;-46
2024/01/25 07:22:32;;;;;;;14.07;4.45;;;;;;;8.57;100.00;100435.50;5026310;28;20057;-54
2024/01/25 07:25:00;;;;;;;13.90;3.03;;;;;;;9.02;100.00;100443.94;5032860;28;20057;-58
2024/01/25 07:27:32;;;;;;;11.63;2.50;;;;;;;9.08;100.00;100446.28;5033304;28;20107;-46
2024/01/25 07:30:05;;;;;;;10.73;2.45;;;;;;;8.99;100.00;100447.63;5033777;28;20049;-48
2024/01/25 07:32:35;;;;;;;14.30;2.58;;;;;;;8.88;100.00;100447.28;5033198;28;20080;-48
2024/01/25 07:35:04;;;;;;;14.88;2.92;;;;;;;8.91;100.00;100444.47;5032702;28;20088;-48
2024/01/25 07:37:37;;;;;;;13.50;3.00;;;;;;;8.87;100.00;100464.16;5033657;28;20085;-48
2024/01/25 07:40:07;;;;;;;16.88;2.95;;;;;;;8.86;100.00;100435.84;5033415;28;20510;-47
2024/01/25 07:42:36;;;;;;;15.43;3.28;;;;;;;8.95;100.00;100493.06;5032549;28;20069;-52
2024/01/25 07:45:05;;;;;;;15.52;2.78;;;;;;;8.92;100.00;100496.72;5029120;28;20053;-47
2024/01/25 07:47:34;;;;;;;14.02;2.65;;;;;;;8.89;100.00;100496.91;5032955;28;20618;-49
2024/01/25 07:50:07;;;;;;;15.80;3.58;;;;;;;8.79;100.00;100492.97;5033454;28;20053;-51
2024/01/25 07:52:40;;;;;;;13.48;3.03;;;;;;;8.88;100.00;100496.03;5033415;28;20446;-45
2024/01/25 07:55:09;;;;;;;13.23;3.25;;;;;;;8.88;100.00;100508.47;5017319;28;20053;-49
2024/01/25 07:57:38;;;;;;;12.73;3.00;;;;;;;8.84;100.00;100504.22;5016871;28;20115;-48
2024/01/25 08:00:08;;;;;;;12.82;2.95;;;;;;;8.80;100.00;100511.50;5033507;28;20053;-48
2024/01/25 08:02:38;;;;;;;12.85;2.90;;;;;;;8.93;100.00;100501.13;5029338;28;20045;-47
2024/01/25 08:05:07;;;;;;;12.00;3.00;;;;;;;8.93;100.00;100489.63;5036268;28;20593;-49
2024/01/25 08:07:37;;;;;;;13.40;3.05;;;;;;;8.98;100.00;100496.44;5036113;28;20086;-43
2024/01/25 08:10:10;;;;;;;;;;;;;;;9.00;100.00;100502.53;5033301;28;20095;-46
2024/01/25 08:12:43;;;;;;;16.58;3.15;;;;;;;9.05;100.00;100513.81;5037543;28;19924;-51
2024/01/25 08:15:20;;;;;;;17.58;3.20;;;;;;;9.08;100.00;100494.19;5031328;28;20632;-49
2024/01/25 08:17:48;;;;;;;15.20;3.17;;;;;;;9.02;100.00;100505.97;5032426;28;20045;-48
2024/01/25 08:20:19;;;;;;;14.23;2.75;;;;;;;9.08;100.00;100483.53;5035358;28;20106;-47
2024/01/25 08:22:48;;;;;;;13.52;2.65;;;;;;;9.01;100.00;100488.31;5024124;28;20132;-51
2024/01/25 08:25:17;;;;;;;9.85;2.78;;;;;;;9.15;100.00;100479.59;5032088;28;20052;-46
2024/01/25 08:27:49;;;;;;;10.45;2.60;;;;;;;9.16;100.00;100492.84;5032335;28;20073;-49
2024/01/25 08:30:18;;;;;;;14.77;3.15;;;;;;;9.25;100.00;100490.66;5032239;28;20050;-50
2024/01/25 08:32:47;;;;;;;14.80;3.53;;;;;;;9.21;100.00;100510.38;5031948;28;20654;-51
2024/01/25 08:35:15;;;;;;;14.18;3.13;;;;;;;9.29;100.00;100513.53;5031170;28;20111;-47
2024/01/25 08:37:44;;;;;;;12.95;3.13;;;;;;;9.39;100.00;100491.69;5032215;28;20049;-50
2024/01/25 08:40:13;;;;;;;14.75;3.13;;;;;;;9.47;100.00;100499.28;5032459;28;20128;-49
2024/01/25 08:42:47;;;;;;;14.90;2.83;;;;;;;9.51;100.00;100502.63;5032370;28;20507;-44
2024/01/25 08:45:15;;;;;;;15.23;3.10;;;;;;;9.54;100.00;100503.31;5031239;28;20053;-50
2024/01/25 08:47:46;;;;;;;12.38;2.70;;;;;;;9.72;100.00;100515.69;5032231;28;20062;-52
2024/01/25 08:50:15;;;;;;;15.82;3.35;;;;;;;9.74;100.00;100534.25;5030811;28;20049;-51
2024/01/25 08:52:52;;;;;;;12.70;3.25;;;;;;;9.80;100.00;100520.63;5030779;28;20049;-53
2024/01/25 08:55:21;;;;;;;14.98;3.00;;;;;;;9.86;100.00;100535.44;5031269;28;20088;-48
2024/01/25 08:57:55;;;;;;;14.60;2.95;;;;;;;9.78;100.00;100505.66;5031803;28;20076;-50
2024/01/25 09:00:26;;;;;;;12.27;2.83;;;;;;;9.87;100.00;100547.81;5038455;28;20049;-53
2024/01/25 09:02:54;;;;;;;14.45;3.20;;;;;;;9.79;100.00;100539.34;5032344;28;20473;-45
2024/01/25 09:05:23;;;;;;;16.23;3.40;;;;;;;9.86;100.00;100535.44;5032007;28;20044;-53
2024/01/25 09:07:56;;;;;;;14.15;3.03;;;;;;;10.02;100.00;100512.34;5031790;28;20049;-51
2024/01/25 09:10:25;;;;;;;11.05;2.60;;;;;;;9.89;100.00;100530.78;5031625;28;20052;-48
2024/01/25 09:13:04;;;;;;;13.52;3.20;;;;;;;9.89;100.00;100553.91;5032134;28;20132;-51
2024/01/25 09:15:35;;;;;;;11.20;3.05;;;;;;;9.98;100.00;100556.09;5030645;28;20082;-51
2024/01/25 09:18:14;;;;;;;13.43;2.80;;;;;;;10.07;100.00;100576.06;5032259;28;20054;-51
2024/01/25 09:20:47;;;;;;;13.60;2.97;;;;;;;10.00;100.00;100575.53;5031396;28;20502;-50
2024/01/25 09:23:16;;;;;;;17.55;2.72;;;;;;;9.92;100.00;100589.25;5031520;28;20140;-50
2024/01/25 09:25:47;;;;;;;11.52;2.45;;;;;;;9.96;100.00;100584.63;5030259;28;20398;-49
2024/01/25 09:28:17;;;;;;;10.30;2.58;;;;;;;10.13;100.00;100575.72;5014230;28;20049;-50
2024/01/25 09:30:46;;;;;;;12.60;2.95;;;;;;;10.08;100.00;100562.66;5031673;28;20037;-50
2024/01/25 09:33:15;;;;;;;12.85;3.03;;;;;;;9.95;100.00;100574.91;5031880;28;20053;-48
2024/01/25 09:35:46;;;;;;;14.88;2.97;;;;;;;10.02;100.00;100562.97;5022226;28;20103;-48
2024/01/25 09:38:21;;;;;;;11.27;2.90;;;;;;;10.06;100.00;100579.69;5039384;28;20049;-50
2024/01/25 09:40:49;;;;;;;14.55;3.50;;;;;;;10.03;100.00;100599.34;5043140;28;20124;-51
2024/01/25 09:43:20;;;;;;;12.13;3.10;;;;;;;10.17;100.00;100574.63;5040529;28;20045;-50
2024/01/25 09:45:55;;;;;;;12.70;2.97;;;;;;;10.07;100.00;100587.59;5032766;28;20411;-47
2024/01/25 09:48:24;;;;;;;13.63;3.15;;;;;;;10.22;100.00;100578.78;5032038;28;20049;-49
2024/01/25 09:50:55;;;;;;;15.73;3.20;;;;;;;10.04;100.00;100588.63;5032498;28;20057;-48
2024/01/25 09:53:25;;;;;;;15.73;2.97;;;;;;;9.98;100.00;100577.41;5032481;28;20045;-48
2024/01/25 09:56:02;;;;;;;13.20;2.67;;;;;;;9.89;100.00;100589.41;5032291;28;20049;-51
2024/01/25 09:58:38;;;;;;;12.05;2.67;;;;;;;9.90;100.00;100608.91;5032111;28;20095;-49
2024/01/25 10:01:11;;;;;;;16.08;3.03;;;;;;;9.84;100.00;100602.09;5031737;28;20041;-48
2024/01/25 10:03:46;;;;;;;12.23;2.85;;;;;;;9.64;100.00;100575.63;5032247;28;20049;-48
2024/01/25 10:06:16;;;;;;;12.80;3.10;;;;;;;9.65;100.00;100591.53;5031581;28;20046;-47
2024/01/25 10:08:46;;;;;;;12.35;2.78;;;;;;;9.75;100.00;100597.28;5036956;28;20052;-51
2024/01/25 10:11:15;;;;;;;18.75;2.95;;;;;;;9.85;100.00;100582.53;5033828;28;20060;-49
2024/01/25 10:13:50;;;;;;;13.35;2.85;;;;;;;9.89;100.00;100580.56;5030987;28;20072;-48
2024/01/25 10:16:21;;;;;;;13.68;2.65;;;;;;;9.80;100.00;100599.69;5033227;28;20053;-51
2024/01/25 10:18:52;;;;;;;13.05;2.70;;;;;;;9.79;100.00;100577.50;5053124;28;20390;-51
2024/01/25 10:21:21;;;;;;;14.70;3.13;;;;;;;9.86;100.00;100584.25;5035876;28;20121;-54
2024/01/25 10:23:51;;;;;;;18.58;3.17;;;;;;;10.01;100.00;100562.09;5033384;28;20052;-48
2024/01/25 10:26:19;;;;;;;13.55;3.05;;;;;;;10.03;100.00;100576.22;5030985;28;20419;-50
2024/01/25 10:28:53;;;;;;;12.75;3.17;;;;;;;10.23;100.00;100561.88;5013804;28;20046;-53
2024/01/25 10:31:30;;;;;;;11.90;3.28;;;;;;;10.34;100.00;100579.09;5031031;28;20053;-48
2024/01/25 10:34:00;;;;;;;10.88;3.03;;;;;;;10.45;100.00;100584.72;5031132;28;20046;-52
2024/01/25 10:36:29;;;;;;;12.25;2.55;;;;;;;10.30;100.00;100573.91;5030908;28;20064;-51
2024/01/25 10:38:59;;;;;;;16.75;3.25;;;;;;;10.22;100.00;100570.78;5030941;28;20041;-45
2024/01/25 10:41:28;;;;;;;10.55;2.95;;;;;;;10.17;100.00;100553.31;5031250;28;20046;-45
2024/01/25 10:44:02;;;;;;;15.25;2.67;;;;;;;10.11;100.00;100557.16;5013383;28;20410;-43
2024/01/25 10:46:31;;;;;;;14.23;2.88;;;;;;;10.13;100.00;100541.06;5031028;28;20052;-44
2024/01/25 10:49:00;;;;;;;13.70;3.42;;;;;;;10.36;100.00;100561.22;5030614;28;20053;-46
2024/01/25 10:51:30;;;;;;;15.25;3.17;;;;;;;10.39;100.00;100555.69;5031266;28;20046;-45
2024/01/25 10:54:04;;;;;;;14.43;2.95;;;;;;;10.52;100.00;100559.44;5031416;28;20108;-49
2024/01/25 10:56:33;;;;;;;13.32;2.58;;;;;;;10.46;100.00;100554.44;5031515;28;20049;-45
2024/01/25 10:59:03;;;;;;;17.55;3.33;;;;;;;10.44;100.00;100588.34;5032192;28;20096;-43
2024/01/25 11:01:31;;;;;;;11.80;2.80;;;;;;;10.41;100.00;100561.81;5030790;28;20470;-44
2024/01/25 11:04:00;;;;;;;10.82;2.88;;;;;;;10.34;100.00;100552.44;5031054;28;20100;-44
2024/01/25 11:06:29;;;;;;;14.98;2.80;;;;;;;10.45;100.00;100576.72;5031671;28;20048;-43
2024/01/25 11:09:08;;;;;;;18.88;3.33;;;;;;;10.24;100.00;100584.94;5030927;28;20127;-44
2024/01/25 11:11:37;;;;;;;12.23;3.03;;;;;;;10.24;100.00;100558.28;5030810;28;20144;-43
2024/01/25 11:14:14;;;;;;;13.93;3.00;;;;;;;10.16;100.00;100548.94;5031327;28;20046;-44
2024/01/25 11:16:44;;;;;;;12.77;2.92;;;;;;;10.16;100.00;100544.47;5031100;28;20463;-45
2024/01/25 11:19:20;;;;;;;15.00;2.72;;;;;;;10.24;100.00;100566.28;5030797;28;20046;-46
2024/01/25 11:21:53;;;;;;;12.45;2.88;;;;;;;10.32;100.00;100569.34;5029645;28;20115;-44
2024/01/25 11:24:25;;;;;;;12.25;2.70;;;;;;;10.12;100.00;100590.84;5031071;28;20122;-45
2024/01/25 11:26:55;;;;;;;11.63;2.50;;;;;;;10.28;100.00;100551.81;5045730;28;20045;-44
2024/01/25 11:29:27;;;;;;;11.25;2.63;;;;;;;10.21;100.00;100587.72;5030910;28;20045;-43
2024/01/25 11:31:56;;;;;;;11.98;2.78;;;;;;;10.15;100.00;100552.53;5030970;28;20084;-45
2024/01/25 11:34:24;;;;;;;10.40;2.95;;;;;;;10.25;100.00;100554.66;5030915;28;20046;-43
2024/01/25 11:36:53;;;;;;;14.20;2.85;;;;;;;10.27;100.00;100552.75;5030759;28;20133;-47
2024/01/25 11:39:22;;;;;;;11.57;2.42;;;;;;;10.20;100.00;100567.31;5029305;28;20052;-43
2024/01/25 11:41:55;;;;;;;9.48;2.55;;;;;;;10.22;100.00;100552.13;5030086;28;20490;-45
2024/01/25 11:44:27;;;;;;;12.25;2.78;;;;;;;10.18;100.00;100550.56;5034502;28;20041;-44
2024/01/25 11:46:57;;;;;;;12.15;3.42;;;;;;;10.25;100.00;100541.31;5028978;28;20554;-43
2024/01/25 11:49:26;;;;;;;11.63;2.97;;;;;;;10.15;100.00;100556.06;5029631;28;20046;-43
2024/01/25 11:51:54;;;;;;;15.88;3.20;;;;;;;10.25;100.00;100570.66;5029743;28;20132;-43
2024/01/25 11:54:23;;;;;;;14.13;2.95;;;;;;;10.14;100.00;100551.69;5029327;28;20057;-44
2024/01/25 11:56:54;;;;;;;9.75;2.65;;;;;;;10.19;100.00;100532.75;5028377;28;20091;-47
2024/01/25 11:59:24;;;;;;;16.13;3.10;;;;;;;10.15;100.00;100582.72;5029592;28;20611;-42
2024/01/25 12:02:03;;;;;;;13.93;3.00;;;;;;;10.21;100.00;100577.03;5032212;28;20088;-44
2024/01/25 12:04:36;;;;;;;13.05;2.92;;;;;;;10.18;100.00;100553.22;5032671;28;20410;-43
2024/01/25 12:07:07;;;;;;;11.10;2.85;;;;;;;10.22;100.00;100549.47;5031421;28;20049;-49
2024/01/25 12:09:42;;;;;;;9.90;2.33;;;;;;;10.13;100.00;100539.25;5025777;28;20119;-44
2024/01/25 12:12:16;;;;;;;9.85;2.92;;;;;;;10.10;100.00;100551.91;5042448;28;20068;-44
2024/01/25 12:14:47;;;;;;;10.40;2.85;;;;;;;10.06;100.00;100559.22;5029032;28;20056;-45
2024/01/25 12:17:18;;;;;;;15.70;2.42;;;;;;;10.17;100.00;100540.84;5045401;28;20053;-45
2024/01/25 12:19:46;;;;;;;16.05;3.15;;;;;;;10.11;100.00;100546.50;5048505;28;20083;-44
2024/01/25 12:22:24;;;;;;;12.27;2.28;;;;;;;10.06;100.00;100561.88;5034521;28;20384;-44
2024/01/25 12:24:57;;;;;;;10.90;2.67;;;;;;;10.06;100.00;100585.88;5033456;28;20057;-44
2024/01/25 12:27:32;;;;;;;14.70;2.65;;;;;;;10.11;100.00;100556.28;5032226;28;20425;-44
2024/01/25 12:30:15;;;;;;;10.77;2.63;;;;;;;10.00;100.00;100532.88;5033181;28;20459;-51
2024/01/25 12:32:57;;;;;;;13.80;2.90;;;;;;;10.09;100.00;100532.41;5032919;28;20056;-44
2024/01/25 12:35:25;;;;;;;13.85;3.10;;;;;;;10.06;100.00;100526.38;5031877;28;20061;-43
2024/01/25 12:37:53;;;;;;;15.45;2.47;;;;;;;10.00;100.00;100548.88;5026902;28;20124;-43
2024/01/25 12:40:30;;;;;;;9.20;2.35;;;;;;;9.96;100.00;100526.00;5032565;28;20375;-43
2024/01/25 12:43:06;;;;;;;9.13;2.55;;;;;;;10.14;100.00;100553.47;5032346;28;20057;-43
2024/01/25 12:45:34;;;;;;;8.88;2.55;;;;;;;10.07;100.00;100555.59;5031527;28;20081;-44
2024/01/25 12:48:08;;;;;;;8.05;2.10;;;;;;;9.95;100.00;100534.94;5032193;28;20128;-43
2024/01/25 12:50:37;;;;;;;8.43;2.65;;;;;;;9.96;100.00;100505.56;5031993;28;20107;-44
2024/01/25 12:53:11;;;;;;;10.18;2.85;;;;;;;9.94;100.00;100550.06;5032101;28;20128;-43
2024/01/25 12:55:40;;;;;;;9.77;2.80;;;;;;;9.99;100.00;100525.84;5031337;28;20049;-43
2024/01/25 12:58:09;;;;;;;11.77;3.08;;;;;;;9.91;100.00;100533.38;5031689;28;20073;-47
2024/01/25 13:00:37;;;;;;;12.32;2.28;;;;;;;9.83;100.00;100514.25;5032348;28;20050;-43
2024/01/25 13:03:07;;;;;;;10.75;2.70;;;;;;;9.96;100.00;100526.00;5032064;28;20049;-44
2024/01/25 13:05:39;;;;;;;9.57;2.17;;;;;;;9.99;100.00;100525.84;5031298;28;20057;-43
2024/01/25 13:08:08;;;;;;;12.23;2.55;;;;;;;10.01;100.00;100530.13;5032091;28;20460;-45
2024/01/25 13:10:36;;;;;;;11.77;2.33;;;;;;;9.92;100.00;100529.75;5031679;28;20081;-43
2024/01/25 13:13:05;;;;;;;13.60;2.70;;;;;;;9.94;100.00;100538.53;5014926;28;20052;-43
2024/01/25 13:15:45;;;;;;;10.90;2.58;;;;;;;9.94;100.00;100515.44;5030809;28;20169;-46
2024/01/25 13:18:15;;;;;;;14.45;3.10;;;;;;;9.98;100.00;100518.78;5024858;28;20049;-44
2024/01/25 13:20:47;;;;;;;12.50;2.70;;;;;;;9.96;100.00;100521.53;5031669;28;20409;-49
2024/01/25 13:23:16;;;;;;;13.82;2.50;;;;;;;9.89;100.00;100551.25;5032234;28;20091;-44
2024/01/25 13:25:50;;;;;;;10.93;2.88;;;;;;;9.85;99.76;100528.38;5032084;28;20073;-46
2024/01/25 13:28:19;;;;;;;14.10;3.22;;;;;;;9.84;100.00;100518.63;5032549;28;20045;-45
2024/01/25 13:30:50;;;;;;;14.13;2.88;;;;;;;9.79;100.00;100534.03;5032723;28;20621;-44
2024/01/25 13:33:21;;;;;;;13.48;3.15;;;;;;;9.85;100.00;100557.69;5032910;28;20516;-43
2024/01/25 13:35:50;;;;;;;16.45;2.95;;;;;;;9.88;100.00;100555.72;5030019;28;20060;-45
2024/01/25 13:38:24;;;;;;;12.73;2.75;;;;;;;9.75;100.00;100544.84;5031366;28;20049;-43
2024/01/25 13:40:56;;;;;;;10.25;2.85;;;;;;;9.85;98.00;100561.22;5031434;28;20502;-44
2024/01/25 13:43:27;;;;;;;11.30;2.60;;;;;;;9.89;97.54;100556.56;5030918;28;20425;-43
2024/01/25 13:45:56;;;;;;;11.35;2.85;;;;;;;9.74;97.65;100575.06;5030001;28;20053;-42
2024/01/25 13:48:27;;;;;;;10.55;2.80;;;;;;;9.79;97.15;100569.50;5031081;28;20045;-43
2024/01/25 13:50:56;;;;;;;12.68;2.55;;;;;;;9.79;96.46;100568.66;5030959;28;20128;-46
2024/01/25 13:53:24;;;;;;;9.40;2.42;;;;;;;9.79;96.30;100566.00;5030969;28;20131;-44
2024/01/25 13:55:55;;;;;;;10.48;2.78;;;;;;;9.78;97.18;100565.13;5030048;28;20129;-44
2024/01/25 13:58:24;;;;;;;11.38;2.42;;;;;;;9.65;95.80;100583.56;5029729;28;20053;-43
2024/01/25 14:00:54;;;;;;;9.43;2.95;;;;;;;9.78;95.82;100569.59;5031174;28;20382;-44
2024/01/25 14:03:23;;;;;;;12.60;2.85;;;;;;;9.70;96.26;100584.16;5030724;28;20087;-45
2024/01/25 14:05:55;;;;;;;14.43;3.30;;;;;;;9.75;95.96;100592.81;5029503;28;20061;-43
2024/01/25 14:08:24;;;;;;;10.90;2.60;;;;;;;9.64;95.51;100559.63;5030929;28;20140;-41
2024/01/25 14:10:55;;;;;;;12.10;2.88;;;;;;;9.70;95.98;100568.19;5034359;28;20484;-45
2024/01/25 14:13:26;;;;;;;8.07;2.58;;;;;;;9.69;96.31;100577.13;5024617;28;20124;-47
2024/01/25 14:15:56;;;;;;;10.98;2.78;;;;;;;9.65;97.27;100574.69;5017850;28;20056;-45